sensor_id;sensor_type;location;lat;lon;timestamp;temperature;humidity
41630;DHT22;27322;49.488;8.480;2024-03-02T00:02:12;9.20;99.90
41630;DHT22;27322;49.488;8.480;2024-03-02T00:04:38;9.10;99.90
41630;DHT22;27322;49.488;8.480;2024-03-02T00:07:04;9.10;99.90
41630;DHT22;27322;49.488;8.480;2024-03-02T00:09:30;9.10;99.90
41630;DHT22;27322;49.488;8.480;2024-03-02T00:11:55;9.10;99.90
41630;DHT22;27322;49.488;8.480;2024-03-02T00:14:22;9.10;99.90
41630;DHT22;27322;49.488;8.480;2024-03-02T00:16:50;9.00;99.90
41630;DHT22;27322;49.488;8.480;2024-03-02T00:19:16;9.00;99.90
41630;DHT22;27322;49.488;8.480;2024-03-02T00:21:42;9.00;99.90
41630;DHT22;27322;49.488;8.480;2024-03-02T00:24:21;9.00;99.90
41630;DHT22;27322;49.488;8.480;2024-03-02T00:26:50;9.00;99.90
41630;DHT22;27322;49.488;8.480;2024-03-02T00:29:16;8.90;99.90
41630;DHT22;27322;49.488;8.480;2024-03-02T00:31:43;8.90;99.90
41630;DHT22;27322;49.488;8.480;2024-03-02T00:34:13;8.90;99.90
41630;DHT22;27322;49.488;8.480;2024-03-02T00:36:39;8.90;99.90
41630;DHT22;27322;49.488;8.480;2024-03-02T00:39:05;8.90;99.90
41630;DHT22;27322;49.488;8.480;2024-03-02T00:41:33;8.90;99.90
41630;DHT22;27322;49.488;8.480;2024-03-02T00:44:04;8.90;99.90
41630;DHT22;27322;49.488;8.480;2024-03-02T00:46:38;8.90;99.90
41630;DHT22;27322;49.488;8.480;2024-03-02T00:49:26;8.90;99.90
41630;DHT22;27322;49.488;8.480;2024-03-02T00:51:52;8.90;99.90
41630;DHT22;27322;49.488;8.480;2024-03-02T00:54:27;8.90;99.90
41630;DHT22;27322;49.488;8.480;2024-03-02T00:56:54;8.90;99.90
41630;DHT22;27322;49.488;8.480;2024-03-02T00:59:22;8.80;99.90
41630;DHT22;27322;49.488;8.480;2024-03-02T01:01:48;8.80;99.90
41630;DHT22;27322;49.488;8.480;2024-03-02T01:04:14;8.80;99.90
41630;DHT22;27322;49.488;8.480;2024-03-02T01:06:40;8.80;99.90
41630;DHT22;27322;49.488;8.480;2024-03-02T01:09:06;8.80;99.90
41630;DHT22;27322;49.488;8.480;2024-03-02T01:11:31;8.90;99.90
41630;DHT22;27322;49.488;8.480;2024-03-02T01:13:57;8.90;99.90
41630;DHT22;27322;49.488;8.480;2024-03-02T01:16:22;8.90;99.90
41630;DHT22;27322;49.488;8.480;2024-03-02T01:18:48;8.90;99.90
41630;DHT22;27322;49.488;8.480;2024-03-02T01:21:14;8.80;99.90
41630;DHT22;27322;49.488;8.480;2024-03-02T01:23:40;8.80;99.90
41630;DHT22;27322;49.488;8.480;2024-03-02T01:26:05;8.80;99.90
41630;DHT22;27322;49.488;8.480;2024-03-02T01:28:32;8.80;99.90
41630;DHT22;27322;49.488;8.480;2024-03-02T01:30:57;8.80;99.90
41630;DHT22;27322;49.488;8.480;2024-03-02T01:33:23;8.80;99.90
41630;DHT22;27322;49.488;8.480;2024-03-02T01:35:48;8.80;99.90
41630;DHT22;27322;49.488;8.480;2024-03-02T01:38:14;8.80;99.90
41630;DHT22;27322;49.488;8.480;2024-03-02T01:40:39;8.80;99.90
41630;DHT22;27322;49.488;8.480;2024-03-02T01:43:06;8.80;99.90
41630;DHT22;27322;49.488;8.480;2024-03-02T01:45:32;8.80;99.90
41630;DHT22;27322;49.488;8.480;2024-03-02T01:47:57;8.80;99.90
41630;DHT22;27322;49.488;8.480;2024-03-02T01:50:31;8.80;99.90
41630;DHT22;27322;49.488;8.480;2024-03-02T01:52:57;8.80;99.90
41630;DHT22;27322;49.488;8.480;2024-03-02T01:55:23;8.80;99.90
41630;DHT22;27322;49.488;8.480;2024-03-02T01:57:49;8.90;99.90
41630;DHT22;27322;49.488;8.480;2024-03-02T02:00:19;8.90;99.90
41630;DHT22;27322;49.488;8.480;2024-03-02T02:02:45;8.90;99.90
41630;DHT22;27322;49.488;8.480;2024-03-02T02:05:11;9.00;99.90
41630;DHT22;27322;49.488;8.480;2024-03-02T02:07:37;9.00;99.90
41630;DHT22;27322;49.488;8.480;2024-03-02T02:10:02;8.90;99.90
41630;DHT22;27322;49.488;8.480;2024-03-02T02:12:28;8.90;99.90
41630;DHT22;27322;49.488;8.480;2024-03-02T02:14:54;8.90;99.90
41630;DHT22;27322;49.488;8.480;2024-03-02T02:17:19;8.90;99.90
41630;DHT22;27322;49.488;8.480;2024-03-02T02:19:45;8.90;99.90
41630;DHT22;27322;49.488;8.480;2024-03-02T02:22:11;8.90;99.90
41630;DHT22;27322;49.488;8.480;2024-03-02T02:24:40;8.90;99.90
41630;DHT22;27322;49.488;8.480;2024-03-02T02:27:07;8.90;99.90
41630;DHT22;27322;49.488;8.480;2024-03-02T02:29:32;8.90;99.90
41630;DHT22;27322;49.488;8.480;2024-03-02T02:31:58;8.90;99.90
41630;DHT22;27322;49.488;8.480;2024-03-02T02:34:23;8.80;99.90
41630;DHT22;27322;49.488;8.480;2024-03-02T02:36:49;8.80;99.90
41630;DHT22;27322;49.488;8.480;2024-03-02T02:39:16;8.80;99.90
41630;DHT22;27322;49.488;8.480;2024-03-02T02:41:43;8.80;99.90
41630;DHT22;27322;49.488;8.480;2024-03-02T02:44:09;8.80;99.90
41630;DHT22;27322;49.488;8.480;2024-03-02T02:46:41;8.80;99.90
41630;DHT22;27322;49.488;8.480;2024-03-02T02:49:06;8.80;99.90
41630;DHT22;27322;49.488;8.480;2024-03-02T02:51:32;8.70;99.90
41630;DHT22;27322;49.488;8.480;2024-03-02T02:53:58;8.70;99.90
41630;DHT22;27322;49.488;8.480;2024-03-02T02:56:23;8.70;99.90
41630;DHT22;27322;49.488;8.480;2024-03-02T02:58:49;8.70;99.90
41630;DHT22;27322;49.488;8.480;2024-03-02T03:01:16;8.70;99.90
41630;DHT22;27322;49.488;8.480;2024-03-02T03:03:44;8.70;99.90
41630;DHT22;27322;49.488;8.480;2024-03-02T03:06:11;8.70;99.90
41630;DHT22;27322;49.488;8.480;2024-03-02T03:08:37;8.70;99.90
41630;DHT22;27322;49.488;8.480;2024-03-02T03:11:03;8.70;99.90
41630;DHT22;27322;49.488;8.480;2024-03-02T03:13:33;8.70;99.90
41630;DHT22;27322;49.488;8.480;2024-03-02T03:15:59;8.70;99.90
41630;DHT22;27322;49.488;8.480;2024-03-02T03:18:25;8.60;99.90
41630;DHT22;27322;49.488;8.480;2024-03-02T03:20:50;8.60;99.90
41630;DHT22;27322;49.488;8.480;2024-03-02T03:23:16;8.60;99.90
41630;DHT22;27322;49.488;8.480;2024-03-02T03:25:45;8.50;99.90
41630;DHT22;27322;49.488;8.480;2024-03-02T03:28:10;8.50;99.90
41630;DHT22;27322;49.488;8.480;2024-03-02T03:30:37;8.50;99.90
41630;DHT22;27322;49.488;8.480;2024-03-02T03:33:03;8.50;99.90
41630;DHT22;27322;49.488;8.480;2024-03-02T03:35:31;8.50;99.90
41630;DHT22;27322;49.488;8.480;2024-03-02T03:37:57;8.50;99.90
41630;DHT22;27322;49.488;8.480;2024-03-02T03:40:22;8.50;99.90
41630;DHT22;27322;49.488;8.480;2024-03-02T03:42:48;8.50;99.90
41630;DHT22;27322;49.488;8.480;2024-03-02T03:45:16;8.40;99.90
41630;DHT22;27322;49.488;8.480;2024-03-02T03:47:41;8.40;99.90
41630;DHT22;27322;49.488;8.480;2024-03-02T03:50:07;8.40;99.90
41630;DHT22;27322;49.488;8.480;2024-03-02T03:52:33;8.40;99.90
41630;DHT22;27322;49.488;8.480;2024-03-02T03:54:59;8.40;99.90
41630;DHT22;27322;49.488;8.480;2024-03-02T03:57:24;8.40;99.90
41630;DHT22;27322;49.488;8.480;2024-03-02T03:59:50;8.40;99.90
41630;DHT22;27322;49.488;8.480;2024-03-02T04:02:16;8.40;99.90
41630;DHT22;27322;49.488;8.480;2024-03-02T04:04:41;8.30;99.90
41630;DHT22;27322;49.488;8.480;2024-03-02T04:07:07;8.40;99.90
41630;DHT22;27322;49.488;8.480;2024-03-02T04:09:32;8.40;99.90
41630;DHT22;27322;49.488;8.480;2024-03-02T04:11:58;8.40;99.90
41630;DHT22;27322;49.488;8.480;2024-03-02T04:14:24;8.40;99.90
41630;DHT22;27322;49.488;8.480;2024-03-02T04:16:49;8.40;99.90
41630;DHT22;27322;49.488;8.480;2024-03-02T04:19:15;8.40;99.90
41630;DHT22;27322;49.488;8.480;2024-03-02T04:21:40;8.40;99.90
41630;DHT22;27322;49.488;8.480;2024-03-02T04:24:06;8.40;99.90
41630;DHT22;27322;49.488;8.480;2024-03-02T04:26:31;8.40;99.90
41630;DHT22;27322;49.488;8.480;2024-03-02T04:28:57;8.40;99.90
41630;DHT22;27322;49.488;8.480;2024-03-02T04:31:22;8.50;99.90
41630;DHT22;27322;49.488;8.480;2024-03-02T04:33:48;8.50;99.90
41630;DHT22;27322;49.488;8.480;2024-03-02T04:36:13;8.40;99.90
41630;DHT22;27322;49.488;8.480;2024-03-02T04:38:39;8.40;99.90
41630;DHT22;27322;49.488;8.480;2024-03-02T04:41:06;8.40;99.90
41630;DHT22;27322;49.488;8.480;2024-03-02T04:43:32;8.40;99.90
41630;DHT22;27322;49.488;8.480;2024-03-02T04:45:59;8.40;99.90
41630;DHT22;27322;49.488;8.480;2024-03-02T04:48:24;8.40;99.90
41630;DHT22;27322;49.488;8.480;2024-03-02T04:50:50;8.30;99.90
41630;DHT22;27322;49.488;8.480;2024-03-02T04:53:16;8.30;99.90
41630;DHT22;27322;49.488;8.480;2024-03-02T04:55:41;8.30;99.90
41630;DHT22;27322;49.488;8.480;2024-03-02T04:58:07;8.30;99.90
41630;DHT22;27322;49.488;8.480;2024-03-02T05:00:33;8.20;99.90
41630;DHT22;27322;49.488;8.480;2024-03-02T05:02:59;8.20;99.90
41630;DHT22;27322;49.488;8.480;2024-03-02T05:05:24;8.20;99.90
41630;DHT22;27322;49.488;8.480;2024-03-02T05:07:50;8.20;99.90
41630;DHT22;27322;49.488;8.480;2024-03-02T05:10:16;8.20;99.90
41630;DHT22;27322;49.488;8.480;2024-03-02T05:12:41;8.20;99.90
41630;DHT22;27322;49.488;8.480;2024-03-02T05:15:11;8.20;99.90
41630;DHT22;27322;49.488;8.480;2024-03-02T05:17:37;8.20;99.90
41630;DHT22;27322;49.488;8.480;2024-03-02T05:20:04;8.20;99.90
41630;DHT22;27322;49.488;8.480;2024-03-02T05:22:30;8.10;99.90
41630;DHT22;27322;49.488;8.480;2024-03-02T05:24:56;8.10;99.90
41630;DHT22;27322;49.488;8.480;2024-03-02T05:27:22;8.10;99.90
41630;DHT22;27322;49.488;8.480;2024-03-02T05:29:47;8.10;99.90
41630;DHT22;27322;49.488;8.480;2024-03-02T05:32:13;8.10;99.90
41630;DHT22;27322;49.488;8.480;2024-03-02T05:34:39;8.10;99.90
41630;DHT22;27322;49.488;8.480;2024-03-02T05:37:04;8.10;99.90
41630;DHT22;27322;49.488;8.480;2024-03-02T05:39:30;8.10;99.90
41630;DHT22;27322;49.488;8.480;2024-03-02T05:41:55;8.10;99.90
41630;DHT22;27322;49.488;8.480;2024-03-02T05:44:21;8.10;99.90
41630;DHT22;27322;49.488;8.480;2024-03-02T05:46:48;8.00;99.90
41630;DHT22;27322;49.488;8.480;2024-03-02T05:49:13;8.00;99.90
41630;DHT22;27322;49.488;8.480;2024-03-02T05:51:39;8.00;99.90
41630;DHT22;27322;49.488;8.480;2024-03-02T05:54:04;8.00;99.90
41630;DHT22;27322;49.488;8.480;2024-03-02T05:56:30;8.00;99.90
41630;DHT22;27322;49.488;8.480;2024-03-02T05:58:56;8.00;99.90
41630;DHT22;27322;49.488;8.480;2024-03-02T06:01:42;8.00;99.90
41630;DHT22;27322;49.488;8.480;2024-03-02T06:04:08;8.00;99.90
41630;DHT22;27322;49.488;8.480;2024-03-02T06:06:34;8.00;99.90
41630;DHT22;27322;49.488;8.480;2024-03-02T06:09:04;8.00;99.90
41630;DHT22;27322;49.488;8.480;2024-03-02T06:11:37;8.00;99.90
41630;DHT22;27322;49.488;8.480;2024-03-02T06:14:06;8.00;99.90
41630;DHT22;27322;49.488;8.480;2024-03-02T06:16:32;8.00;99.90
41630;DHT22;27322;49.488;8.480;2024-03-02T06:18:58;8.00;99.90
41630;DHT22;27322;49.488;8.480;2024-03-02T06:21:24;8.00;99.90
41630;DHT22;27322;49.488;8.480;2024-03-02T06:23:50;8.00;99.90
41630;DHT22;27322;49.488;8.480;2024-03-02T06:26:16;8.00;99.90
41630;DHT22;27322;49.488;8.480;2024-03-02T06:28:41;8.00;99.90
41630;DHT22;27322;49.488;8.480;2024-03-02T06:31:08;8.00;99.90
41630;DHT22;27322;49.488;8.480;2024-03-02T06:33:33;8.00;99.90
41630;DHT22;27322;49.488;8.480;2024-03-02T06:35:59;8.00;99.90
41630;DHT22;27322;49.488;8.480;2024-03-02T06:38:24;8.00;99.90
41630;DHT22;27322;49.488;8.480;2024-03-02T06:40:50;8.00;99.90
41630;DHT22;27322;49.488;8.480;2024-03-02T06:43:16;8.00;99.90
41630;DHT22;27322;49.488;8.480;2024-03-02T06:45:41;8.00;99.90
41630;DHT22;27322;49.488;8.480;2024-03-02T06:48:07;8.00;99.90
41630;DHT22;27322;49.488;8.480;2024-03-02T06:50:33;8.00;99.90
41630;DHT22;27322;49.488;8.480;2024-03-02T06:52:58;8.00;99.90
41630;DHT22;27322;49.488;8.480;2024-03-02T06:55:24;8.00;99.90
41630;DHT22;27322;49.488;8.480;2024-03-02T06:57:50;8.00;99.90
41630;DHT22;27322;49.488;8.480;2024-03-02T07:00:16;8.10;99.90
41630;DHT22;27322;49.488;8.480;2024-03-02T07:02:43;8.00;99.90
41630;DHT22;27322;49.488;8.480;2024-03-02T07:05:10;8.00;99.90
41630;DHT22;27322;49.488;8.480;2024-03-02T07:07:36;8.10;99.90
41630;DHT22;27322;49.488;8.480;2024-03-02T07:10:03;8.10;99.90
41630;DHT22;27322;49.488;8.480;2024-03-02T07:12:29;8.10;99.90
41630;DHT22;27322;49.488;8.480;2024-03-02T07:14:56;8.10;99.90
41630;DHT22;27322;49.488;8.480;2024-03-02T07:17:28;8.20;99.90
41630;DHT22;27322;49.488;8.480;2024-03-02T07:19:53;8.20;99.90
41630;DHT22;27322;49.488;8.480;2024-03-02T07:22:19;8.20;99.90
41630;DHT22;27322;49.488;8.480;2024-03-02T07:24:45;8.20;99.90
41630;DHT22;27322;49.488;8.480;2024-03-02T07:27:15;8.20;99.90
41630;DHT22;27322;49.488;8.480;2024-03-02T07:29:41;8.20;99.90
41630;DHT22;27322;49.488;8.480;2024-03-02T07:32:07;8.20;99.90
41630;DHT22;27322;49.488;8.480;2024-03-02T07:34:33;8.20;99.90
41630;DHT22;27322;49.488;8.480;2024-03-02T07:36:59;8.20;99.90
41630;DHT22;27322;49.488;8.480;2024-03-02T07:39:24;8.30;99.90
41630;DHT22;27322;49.488;8.480;2024-03-02T07:41:50;8.30;99.90
41630;DHT22;27322;49.488;8.480;2024-03-02T07:44:16;8.40;99.90
41630;DHT22;27322;49.488;8.480;2024-03-02T07:46:44;8.50;99.90
41630;DHT22;27322;49.488;8.480;2024-03-02T07:49:11;8.50;99.90
41630;DHT22;27322;49.488;8.480;2024-03-02T07:51:37;8.60;99.90
41630;DHT22;27322;49.488;8.480;2024-03-02T07:54:03;8.70;99.90
41630;DHT22;27322;49.488;8.480;2024-03-02T07:56:28;8.70;99.90
41630;DHT22;27322;49.488;8.480;2024-03-02T07:58:54;8.80;99.90
41630;DHT22;27322;49.488;8.480;2024-03-02T08:01:22;8.80;99.90
41630;DHT22;27322;49.488;8.480;2024-03-02T08:03:48;8.90;99.90
41630;DHT22;27322;49.488;8.480;2024-03-02T08:06:16;9.00;99.90
41630;DHT22;27322;49.488;8.480;2024-03-02T08:08:41;9.10;99.90
41630;DHT22;27322;49.488;8.480;2024-03-02T08:11:07;9.20;99.90
41630;DHT22;27322;49.488;8.480;2024-03-02T08:13:32;9.20;99.90
41630;DHT22;27322;49.488;8.480;2024-03-02T08:15:58;9.30;99.90
41630;DHT22;27322;49.488;8.480;2024-03-02T08:18:24;9.40;99.90
41630;DHT22;27322;49.488;8.480;2024-03-02T08:20:50;9.40;99.90
41630;DHT22;27322;49.488;8.480;2024-03-02T08:23:16;9.50;99.90
41630;DHT22;27322;49.488;8.480;2024-03-02T08:25:42;9.50;99.90
41630;DHT22;27322;49.488;8.480;2024-03-02T08:28:07;9.60;99.90
41630;DHT22;27322;49.488;8.480;2024-03-02T08:30:33;9.60;99.90
41630;DHT22;27322;49.488;8.480;2024-03-02T08:32:59;9.60;99.90
41630;DHT22;27322;49.488;8.480;2024-03-02T08:35:25;9.70;99.90
41630;DHT22;27322;49.488;8.480;2024-03-02T08:37:51;9.70;99.90
41630;DHT22;27322;49.488;8.480;2024-03-02T08:40:17;9.70;99.90
41630;DHT22;27322;49.488;8.480;2024-03-02T08:42:42;9.70;99.90
41630;DHT22;27322;49.488;8.480;2024-03-02T08:45:08;9.80;99.90
41630;DHT22;27322;49.488;8.480;2024-03-02T08:47:34;9.80;99.90
41630;DHT22;27322;49.488;8.480;2024-03-02T08:50:00;9.80;99.90
41630;DHT22;27322;49.488;8.480;2024-03-02T08:52:26;9.80;99.90
41630;DHT22;27322;49.488;8.480;2024-03-02T08:54:52;9.80;99.90
41630;DHT22;27322;49.488;8.480;2024-03-02T08:57:17;9.90;99.90
41630;DHT22;27322;49.488;8.480;2024-03-02T08:59:43;9.90;99.90
41630;DHT22;27322;49.488;8.480;2024-03-02T09:02:09;9.90;99.90
41630;DHT22;27322;49.488;8.480;2024-03-02T09:04:35;10.00;99.90
41630;DHT22;27322;49.488;8.480;2024-03-02T09:07:01;10.00;99.90
41630;DHT22;27322;49.488;8.480;2024-03-02T09:09:26;10.10;99.90
41630;DHT22;27322;49.488;8.480;2024-03-02T09:11:52;10.10;99.90
41630;DHT22;27322;49.488;8.480;2024-03-02T09:14:20;10.10;99.90
41630;DHT22;27322;49.488;8.480;2024-03-02T09:16:46;10.20;99.90
41630;DHT22;27322;49.488;8.480;2024-03-02T09:19:11;10.20;99.90
41630;DHT22;27322;49.488;8.480;2024-03-02T09:21:37;10.30;99.90
41630;DHT22;27322;49.488;8.480;2024-03-02T09:24:03;10.30;99.90
41630;DHT22;27322;49.488;8.480;2024-03-02T09:26:29;10.30;99.90
41630;DHT22;27322;49.488;8.480;2024-03-02T09:28:54;10.40;99.90
41630;DHT22;27322;49.488;8.480;2024-03-02T09:31:20;10.40;99.90
41630;DHT22;27322;49.488;8.480;2024-03-02T09:33:45;10.50;99.90
41630;DHT22;27322;49.488;8.480;2024-03-02T09:36:22;10.50;99.90
41630;DHT22;27322;49.488;8.480;2024-03-02T09:38:47;10.50;99.90
41630;DHT22;27322;49.488;8.480;2024-03-02T09:41:14;10.50;99.90
41630;DHT22;27322;49.488;8.480;2024-03-02T09:43:40;10.60;99.90
41630;DHT22;27322;49.488;8.480;2024-03-02T09:46:09;10.60;99.90
41630;DHT22;27322;49.488;8.480;2024-03-02T09:48:35;10.70;99.90
41630;DHT22;27322;49.488;8.480;2024-03-02T09:51:01;10.70;99.90
41630;DHT22;27322;49.488;8.480;2024-03-02T09:53:32;10.80;99.90
41630;DHT22;27322;49.488;8.480;2024-03-02T09:55:59;10.80;99.90
41630;DHT22;27322;49.488;8.480;2024-03-02T09:58:25;10.90;99.90
41630;DHT22;27322;49.488;8.480;2024-03-02T10:00:51;10.90;99.90
41630;DHT22;27322;49.488;8.480;2024-03-02T10:03:18;11.00;99.90
41630;DHT22;27322;49.488;8.480;2024-03-02T10:05:44;11.10;99.90
41630;DHT22;27322;49.488;8.480;2024-03-02T10:08:10;11.10;99.90
41630;DHT22;27322;49.488;8.480;2024-03-02T10:10:37;11.20;99.90
41630;DHT22;27322;49.488;8.480;2024-03-02T10:13:09;11.40;99.90
41630;DHT22;27322;49.488;8.480;2024-03-02T10:15:38;11.60;99.90
41630;DHT22;27322;49.488;8.480;2024-03-02T10:18:08;11.70;99.90
41630;DHT22;27322;49.488;8.480;2024-03-02T10:20:35;12.00;99.90
41630;DHT22;27322;49.488;8.480;2024-03-02T10:23:11;12.30;99.90
41630;DHT22;27322;49.488;8.480;2024-03-02T10:25:37;12.70;99.90
41630;DHT22;27322;49.488;8.480;2024-03-02T10:28:02;13.20;99.90
41630;DHT22;27322;49.488;8.480;2024-03-02T10:30:30;13.60;99.90
41630;DHT22;27322;49.488;8.480;2024-03-02T10:32:56;13.90;99.90
41630;DHT22;27322;49.488;8.480;2024-03-02T10:35:23;13.90;99.90
41630;DHT22;27322;49.488;8.480;2024-03-02T10:37:49;14.10;99.90
41630;DHT22;27322;49.488;8.480;2024-03-02T10:40:15;14.30;99.90
41630;DHT22;27322;49.488;8.480;2024-03-02T10:42:42;14.40;99.90
41630;DHT22;27322;49.488;8.480;2024-03-02T10:45:12;14.40;99.90
41630;DHT22;27322;49.488;8.480;2024-03-02T10:47:38;14.30;99.90
41630;DHT22;27322;49.488;8.480;2024-03-02T10:50:07;14.10;99.90
41630;DHT22;27322;49.488;8.480;2024-03-02T10:52:36;13.90;99.90
41630;DHT22;27322;49.488;8.480;2024-03-02T10:55:02;13.70;99.90
41630;DHT22;27322;49.488;8.480;2024-03-02T10:57:36;13.50;99.90
41630;DHT22;27322;49.488;8.480;2024-03-02T11:00:06;13.40;99.90
41630;DHT22;27322;49.488;8.480;2024-03-02T11:02:35;13.30;99.90
41630;DHT22;27322;49.488;8.480;2024-03-02T11:05:05;13.30;99.90
41630;DHT22;27322;49.488;8.480;2024-03-02T11:07:33;13.20;99.90
41630;DHT22;27322;49.488;8.480;2024-03-02T11:10:01;13.10;99.90
41630;DHT22;27322;49.488;8.480;2024-03-02T11:12:37;13.10;99.90
41630;DHT22;27322;49.488;8.480;2024-03-02T11:15:10;13.10;99.90
41630;DHT22;27322;49.488;8.480;2024-03-02T11:17:38;13.20;99.90
41630;DHT22;27322;49.488;8.480;2024-03-02T11:20:06;13.30;99.90
41630;DHT22;27322;49.488;8.480;2024-03-02T11:22:35;13.50;99.90
41630;DHT22;27322;49.488;8.480;2024-03-02T11:25:01;13.60;99.90
41630;DHT22;27322;49.488;8.480;2024-03-02T11:35:27;14.00;99.90
41630;DHT22;27322;49.488;8.480;2024-03-02T11:37:56;14.10;99.90
41630;DHT22;27322;49.488;8.480;2024-03-02T11:40:27;14.10;99.90
41630;DHT22;27322;49.488;8.480;2024-03-02T11:42:54;14.20;99.90
41630;DHT22;27322;49.488;8.480;2024-03-02T11:45:24;14.20;99.90
41630;DHT22;27322;49.488;8.480;2024-03-02T11:47:59;14.20;99.90
41630;DHT22;27322;49.488;8.480;2024-03-02T11:50:35;14.10;99.90
41630;DHT22;27322;49.488;8.480;2024-03-02T11:53:05;14.00;99.90
41630;DHT22;27322;49.488;8.480;2024-03-02T11:55:37;14.00;99.90
41630;DHT22;27322;49.488;8.480;2024-03-02T11:58:07;13.90;99.90
41630;DHT22;27322;49.488;8.480;2024-03-02T12:00:33;13.80;99.90
41630;DHT22;27322;49.488;8.480;2024-03-02T12:05:28;13.80;99.90
41630;DHT22;27322;49.488;8.480;2024-03-02T12:08:01;13.70;99.90
41630;DHT22;27322;49.488;8.480;2024-03-02T12:10:27;13.70;99.90
41630;DHT22;27322;49.488;8.480;2024-03-02T12:12:57;13.60;99.90
41630;DHT22;27322;49.488;8.480;2024-03-02T12:15:26;13.60;99.90
41630;DHT22;27322;49.488;8.480;2024-03-02T12:17:57;13.60;99.90
41630;DHT22;27322;49.488;8.480;2024-03-02T12:20:24;13.60;99.90
41630;DHT22;27322;49.488;8.480;2024-03-02T12:22:53;13.50;99.90
41630;DHT22;27322;49.488;8.480;2024-03-02T12:25:20;13.50;99.90
41630;DHT22;27322;49.488;8.480;2024-03-02T12:27:47;13.50;99.90
41630;DHT22;27322;49.488;8.480;2024-03-02T12:30:16;13.50;99.90
41630;DHT22;27322;49.488;8.480;2024-03-02T12:32:41;13.50;99.90
41630;DHT22;27322;49.488;8.480;2024-03-02T12:35:07;13.50;99.90
41630;DHT22;27322;49.488;8.480;2024-03-02T12:37:37;13.50;99.90
41630;DHT22;27322;49.488;8.480;2024-03-02T12:40:07;13.50;99.90
41630;DHT22;27322;49.488;8.480;2024-03-02T12:42:34;13.50;99.90
41630;DHT22;27322;49.488;8.480;2024-03-02T12:45:01;13.40;99.90
41630;DHT22;27322;49.488;8.480;2024-03-02T12:47:26;13.40;99.90
41630;DHT22;27322;49.488;8.480;2024-03-02T12:49:52;13.50;99.90
41630;DHT22;27322;49.488;8.480;2024-03-02T12:52:17;13.50;99.90
41630;DHT22;27322;49.488;8.480;2024-03-02T12:54:44;13.50;99.90
41630;DHT22;27322;49.488;8.480;2024-03-02T12:57:09;13.50;99.90
41630;DHT22;27322;49.488;8.480;2024-03-02T12:59:35;13.50;99.90
41630;DHT22;27322;49.488;8.480;2024-03-02T13:02:02;13.50;99.90
41630;DHT22;27322;49.488;8.480;2024-03-02T13:04:28;13.50;99.90
41630;DHT22;27322;49.488;8.480;2024-03-02T13:06:55;13.50;99.90
41630;DHT22;27322;49.488;8.480;2024-03-02T13:09:23;13.50;99.90
41630;DHT22;27322;49.488;8.480;2024-03-02T13:11:49;13.50;99.90
41630;DHT22;27322;49.488;8.480;2024-03-02T13:14:14;13.50;99.90
41630;DHT22;27322;49.488;8.480;2024-03-02T13:16:41;13.50;99.90
41630;DHT22;27322;49.488;8.480;2024-03-02T13:19:11;13.60;99.90
41630;DHT22;27322;49.488;8.480;2024-03-02T13:21:37;13.60;99.90
41630;DHT22;27322;49.488;8.480;2024-03-02T13:24:04;13.50;99.90
41630;DHT22;27322;49.488;8.480;2024-03-02T13:26:29;13.50;99.90
41630;DHT22;27322;49.488;8.480;2024-03-02T13:28:56;13.60;99.90
41630;DHT22;27322;49.488;8.480;2024-03-02T13:31:21;13.60;99.90
41630;DHT22;27322;49.488;8.480;2024-03-02T13:33:47;13.60;99.90
41630;DHT22;27322;49.488;8.480;2024-03-02T13:36:13;13.60;99.90
41630;DHT22;27322;49.488;8.480;2024-03-02T13:38:39;13.70;99.90
41630;DHT22;27322;49.488;8.480;2024-03-02T13:41:04;13.80;99.90
41630;DHT22;27322;49.488;8.480;2024-03-02T13:43:30;13.90;99.90
41630;DHT22;27322;49.488;8.480;2024-03-02T13:46:00;13.80;99.90
41630;DHT22;27322;49.488;8.480;2024-03-02T13:48:26;13.90;99.90
41630;DHT22;27322;49.488;8.480;2024-03-02T13:50:53;13.90;99.90
41630;DHT22;27322;49.488;8.480;2024-03-02T13:53:19;13.90;99.90
41630;DHT22;27322;49.488;8.480;2024-03-02T13:55:45;13.90;99.90
41630;DHT22;27322;49.488;8.480;2024-03-02T13:58:11;13.90;99.90
41630;DHT22;27322;49.488;8.480;2024-03-02T14:00:37;13.90;99.90
41630;DHT22;27322;49.488;8.480;2024-03-02T14:03:05;14.20;99.90
41630;DHT22;27322;49.488;8.480;2024-03-02T14:05:31;14.60;99.90
41630;DHT22;27322;49.488;8.480;2024-03-02T14:07:57;15.00;99.90
41630;DHT22;27322;49.488;8.480;2024-03-02T14:10:24;15.40;99.70
41630;DHT22;27322;49.488;8.480;2024-03-02T14:12:49;15.70;99.00
41630;DHT22;27322;49.488;8.480;2024-03-02T14:15:15;16.00;98.40
41630;DHT22;27322;49.488;8.480;2024-03-02T14:17:41;16.10;98.50
41630;DHT22;27322;49.488;8.480;2024-03-02T14:20:08;16.00;98.60
41630;DHT22;27322;49.488;8.480;2024-03-02T14:22:35;15.90;99.00
41630;DHT22;27322;49.488;8.480;2024-03-02T14:25:03;15.80;99.40
41630;DHT22;27322;49.488;8.480;2024-03-02T14:27:29;15.70;99.90
41630;DHT22;27322;49.488;8.480;2024-03-02T14:29:54;15.70;99.90
41630;DHT22;27322;49.488;8.480;2024-03-02T14:32:20;15.50;99.90
41630;DHT22;27322;49.488;8.480;2024-03-02T14:34:46;15.60;99.70
41630;DHT22;27322;49.488;8.480;2024-03-02T14:37:13;15.50;99.40
41630;DHT22;27322;49.488;8.480;2024-03-02T14:39:39;15.40;99.60
41630;DHT22;27322;49.488;8.480;2024-03-02T14:42:05;15.30;99.30
41630;DHT22;27322;49.488;8.480;2024-03-02T14:44:31;15.20;99.40
41630;DHT22;27322;49.488;8.480;2024-03-02T14:46:56;15.00;99.70
41630;DHT22;27322;49.488;8.480;2024-03-02T14:49:25;14.90;99.90
41630;DHT22;27322;49.488;8.480;2024-03-02T14:51:51;14.80;99.90
41630;DHT22;27322;49.488;8.480;2024-03-02T14:54:16;14.70;99.90
41630;DHT22;27322;49.488;8.480;2024-03-02T14:56:42;14.70;99.90
41630;DHT22;27322;49.488;8.480;2024-03-02T14:59:08;14.60;99.90
41630;DHT22;27322;49.488;8.480;2024-03-02T15:01:33;14.60;99.90
41630;DHT22;27322;49.488;8.480;2024-03-02T15:03:59;14.50;99.90
41630;DHT22;27322;49.488;8.480;2024-03-02T15:06:25;14.50;99.90
41630;DHT22;27322;49.488;8.480;2024-03-02T15:08:50;14.40;99.90
41630;DHT22;27322;49.488;8.480;2024-03-02T15:11:16;14.40;99.90
41630;DHT22;27322;49.488;8.480;2024-03-02T15:13:42;14.30;99.90
41630;DHT22;27322;49.488;8.480;2024-03-02T15:16:08;14.20;99.90
41630;DHT22;27322;49.488;8.480;2024-03-02T15:18:33;14.20;99.90
41630;DHT22;27322;49.488;8.480;2024-03-02T15:21:00;14.20;99.90
41630;DHT22;27322;49.488;8.480;2024-03-02T15:23:25;14.10;99.90
41630;DHT22;27322;49.488;8.480;2024-03-02T15:25:51;14.00;99.90
41630;DHT22;27322;49.488;8.480;2024-03-02T15:28:17;14.00;99.90
41630;DHT22;27322;49.488;8.480;2024-03-02T15:30:42;14.00;99.90
41630;DHT22;27322;49.488;8.480;2024-03-02T15:33:08;13.90;99.90
41630;DHT22;27322;49.488;8.480;2024-03-02T15:35:33;13.90;99.90
41630;DHT22;27322;49.488;8.480;2024-03-02T15:37:59;13.90;99.90
41630;DHT22;27322;49.488;8.480;2024-03-02T15:40:25;13.80;99.90
41630;DHT22;27322;49.488;8.480;2024-03-02T15:42:50;13.80;99.90
41630;DHT22;27322;49.488;8.480;2024-03-02T15:45:16;13.80;99.90
41630;DHT22;27322;49.488;8.480;2024-03-02T15:47:42;13.80;99.90